createdAt,value
2019-01-21T00:01:40.953Z,10.33
2019-01-21T00:04:12.834Z,11.07
2019-01-21T00:06:46.513Z,11.53
2019-01-21T00:09:18.643Z,12.20
2019-01-21T00:11:50.105Z,11.90
2019-01-21T00:14:22.124Z,11.13
2019-01-21T00:16:53.918Z,10.47
2019-01-21T00:19:25.337Z,10.70
2019-01-21T00:21:58.567Z,10.83
2019-01-21T00:24:30.491Z,11.00
2019-01-21T00:27:01.931Z,9.77
2019-01-21T00:29:35.172Z,10.47
2019-01-21T00:32:07.243Z,10.40
2019-01-21T00:34:40.567Z,10.87
2019-01-21T00:37:12.119Z,11.47
2019-01-21T00:39:45.021Z,11.80
2019-01-21T00:42:16.675Z,11.50
2019-01-21T00:44:48.684Z,11.03
2019-01-21T00:47:20.161Z,10.73
2019-01-21T00:49:53.381Z,10.20
2019-01-21T00:52:25.694Z,9.67
2019-01-21T00:54:57.215Z,10.03
2019-01-21T00:57:28.639Z,9.67
2019-01-21T01:00:01.079Z,9.63
2019-01-21T01:02:34.273Z,9.90
2019-01-21T01:05:07.602Z,10.17
2019-01-21T01:07:39.914Z,9.63
2019-01-21T01:10:12.887Z,9.83
2019-01-21T01:12:44.936Z,9.80
2019-01-21T01:15:16.666Z,10.27
2019-01-21T01:17:48.223Z,9.73
2019-01-21T01:20:21.669Z,9.40
2019-01-21T01:22:53.464Z,10.37
2019-01-21T01:25:25.242Z,9.77
2019-01-21T01:27:56.985Z,10.17
2019-01-21T01:30:31.520Z,9.80
2019-01-21T01:33:03.337Z,9.93
2019-01-21T01:35:36.713Z,10.37
2019-01-21T01:38:08.300Z,9.23
2019-01-21T01:40:40.022Z,8.93
2019-01-21T01:43:11.632Z,9.60
2019-01-21T01:45:43.122Z,9.70
2019-01-21T01:48:14.654Z,9.43
2019-01-21T01:50:46.296Z,9.00
2019-01-21T01:53:18.166Z,9.37
2019-01-21T01:55:50.346Z,10.27
2019-01-21T01:58:23.854Z,9.53
2019-01-21T02:00:57.282Z,9.30
2019-01-21T02:03:28.968Z,9.63
2019-01-21T02:06:00.730Z,9.60
2019-01-21T02:08:32.013Z,9.77
2019-01-21T02:11:03.328Z,9.83
2019-01-21T02:13:34.758Z,8.87
2019-01-21T02:16:07.818Z,9.33
2019-01-21T02:18:39.373Z,10.73
2019-01-21T02:21:12.258Z,10.03
2019-01-21T02:23:47.276Z,9.40
2019-01-21T02:26:21.766Z,9.57
2019-01-21T02:29:25.997Z,9.90
2019-01-21T02:32:53.550Z,9.47
2019-01-21T02:36:05.469Z,10.03
2019-01-21T02:39:05.906Z,9.60
2019-01-21T02:41:45.524Z,10.67
2019-01-21T02:44:47.153Z,10.80
2019-01-21T02:47:28.065Z,9.60
2019-01-21T02:50:28.980Z,10.17
2019-01-21T02:53:38.613Z,10.33
2019-01-21T02:56:50.953Z,9.67
2019-01-21T02:59:57.931Z,9.27
2019-01-21T03:02:57.362Z,9.77
2019-01-21T03:06:07.396Z,10.23
2019-01-21T03:09:09.433Z,9.43
2019-01-21T03:12:32.347Z,8.77
2019-01-21T03:15:45.923Z,9.27
2019-01-21T03:18:46.641Z,9.50
2019-01-21T03:21:56.223Z,9.50
2019-01-21T03:25:04.342Z,9.20
2019-01-21T03:28:05.249Z,9.80
2019-01-21T03:31:26.742Z,9.33
2019-01-21T03:34:49.232Z,8.83
2019-01-21T03:37:49.399Z,9.60
2019-01-21T03:41:01.230Z,10.20
2019-01-21T03:44:28.119Z,9.40
2019-01-21T03:47:33.147Z,9.53
2019-01-21T03:50:46.031Z,10.17
2019-01-21T03:53:59.551Z,9.23
2019-01-21T03:56:50.761Z,13.17
2019-01-21T03:59:45.949Z,15.57
2019-01-21T04:02:46.113Z,15.80
2019-01-21T04:05:49.614Z,9.70
2019-01-21T04:09:21.610Z,9.03
2019-01-21T04:12:19.099Z,8.47
2019-01-21T04:15:32.466Z,10.33
2019-01-21T04:18:47.913Z,13.13
2019-01-21T04:21:56.710Z,12.87
2019-01-21T04:24:57.231Z,11.67
2019-01-21T04:27:54.888Z,9.90
2019-01-21T04:31:06.275Z,8.67
2019-01-21T04:34:14.703Z,8.73
2019-01-21T04:37:16.860Z,9.40
2019-01-21T04:40:09.006Z,8.97
2019-01-21T04:43:07.751Z,9.57
2019-01-21T04:46:13.296Z,8.67
2019-01-21T04:49:37.765Z,8.63
2019-01-21T04:52:45.267Z,8.90
2019-01-21T04:55:54.894Z,9.07
2019-01-21T04:59:06.234Z,11.60
2019-01-21T05:02:08.039Z,11.30
2019-01-21T05:05:11.872Z,13.70
2019-01-21T05:08:36.590Z,14.43
2019-01-21T05:11:51.334Z,12.00
2019-01-21T05:14:49.134Z,10.20
2019-01-21T05:18:17.150Z,8.43
2019-01-21T05:21:33.492Z,8.40
2019-01-21T05:24:38.072Z,8.07
2019-01-21T05:27:36.206Z,7.97
2019-01-21T05:30:55.137Z,7.90
2019-01-21T05:34:05.590Z,7.30
2019-01-21T05:37:11.253Z,7.93
2019-01-21T05:40:30.380Z,7.13
2019-01-21T05:43:45.665Z,7.60
2019-01-21T05:46:57.454Z,7.17
2019-01-21T05:50:05.891Z,7.70
2019-01-21T05:53:08.661Z,7.97
2019-01-21T05:56:25.777Z,6.87
2019-01-21T05:59:38.824Z,7.77
2019-01-21T06:02:44.421Z,7.17
2019-01-21T06:06:08.017Z,8.17
2019-01-21T06:09:23.592Z,7.87
2019-01-21T06:12:32.533Z,8.20
2019-01-21T06:15:39.745Z,7.80
2019-01-21T06:18:36.401Z,8.23
2019-01-21T06:21:38.211Z,8.40
2019-01-21T06:24:32.375Z,7.40
2019-01-21T06:27:40.575Z,8.33
2019-01-21T06:30:33.614Z,7.53
2019-01-21T06:33:43.915Z,7.57
2019-01-21T06:36:25.419Z,7.97
2019-01-21T06:39:46.500Z,7.77
2019-01-21T06:42:58.144Z,8.60
2019-01-21T06:46:20.098Z,7.47
2019-01-21T06:49:22.428Z,7.67
2019-01-21T06:52:27.976Z,7.60
2019-01-21T06:55:39.245Z,8.27
2019-01-21T06:59:04.721Z,7.83
2019-01-21T07:02:29.780Z,8.33
2019-01-21T07:05:40.856Z,9.27
2019-01-21T07:09:12.864Z,8.60
2019-01-21T07:12:15.937Z,8.90
2019-01-21T07:15:33.640Z,7.93
2019-01-21T07:18:41.786Z,7.17
2019-01-21T07:21:55.132Z,7.30
2019-01-21T07:25:10.857Z,7.50
2019-01-21T07:28:16.934Z,8.20
2019-01-21T07:31:19.707Z,8.03
2019-01-21T07:34:33.574Z,8.60
2019-01-21T07:37:33.418Z,10.40
2019-01-21T07:40:24.885Z,10.53
2019-01-21T07:43:21.951Z,10.93
2019-01-21T07:46:26.896Z,11.47
2019-01-21T07:49:29.356Z,12.73
2019-01-21T07:52:50.630Z,12.10
2019-01-21T07:55:48.601Z,11.47
2019-01-21T07:59:01.044Z,11.37
2019-01-21T08:02:06.136Z,10.77
2019-01-21T08:04:57.329Z,12.07
2019-01-21T08:08:13.493Z,12.17
2019-01-21T08:11:23.091Z,13.20
2019-01-21T08:14:30.551Z,13.80
2019-01-21T08:17:37.987Z,14.40
2019-01-21T08:20:34.039Z,14.50
2019-01-21T08:23:42.379Z,12.93
2019-01-21T08:26:54.168Z,10.67
2019-01-21T08:30:12.509Z,9.53
2019-01-21T08:33:24.327Z,10.57
2019-01-21T08:36:25.572Z,10.53
2019-01-21T08:39:49.439Z,10.73
2019-01-21T08:42:44.959Z,10.43
2019-01-21T08:45:48.841Z,10.73
2019-01-21T08:48:40.942Z,10.00
2019-01-21T08:51:47.359Z,10.17
2019-01-21T08:54:54.375Z,10.40
2019-01-21T08:58:10.042Z,10.87
2019-01-21T09:01:05.857Z,11.00
2019-01-21T09:04:21.114Z,11.30
2019-01-21T09:07:25.131Z,9.63
2019-01-21T09:10:08.402Z,10.43
2019-01-21T09:13:12.708Z,11.60
2019-01-21T09:16:41.658Z,12.00
2019-01-21T09:19:37.342Z,11.97
2019-01-21T09:23:02.165Z,13.27
2019-01-21T09:26:06.418Z,14.20
2019-01-21T09:29:24.754Z,14.90
2019-01-21T09:32:41.581Z,14.87
2019-01-21T09:35:35.726Z,15.93
2019-01-21T09:38:50.172Z,15.53
2019-01-21T09:41:50.337Z,15.77
2019-01-21T09:44:47.304Z,15.57
2019-01-21T09:47:17.370Z,16.37
2019-01-21T09:49:49.196Z,15.00
2019-01-21T09:52:22.113Z,16.20
2019-01-21T09:54:54.107Z,16.77
2019-01-21T09:57:27.210Z,16.80
2019-01-21T10:00:03.106Z,17.43
2019-01-21T10:02:52.530Z,16.90
2019-01-21T10:05:28.770Z,16.23
2019-01-21T10:08:47.500Z,17.07
2019-01-21T10:11:49.889Z,16.83
2019-01-21T10:14:37.267Z,16.80
2019-01-21T10:17:59.830Z,16.67
2019-01-21T10:21:09.098Z,16.53
2019-01-21T10:24:48.710Z,15.90
2019-01-21T10:27:53.712Z,16.10
2019-01-21T10:30:49.087Z,15.23
2019-01-21T10:33:48.614Z,15.23
2019-01-21T10:36:48.403Z,16.60
2019-01-21T10:39:53.058Z,15.23
2019-01-21T10:43:12.337Z,16.00
2019-01-21T10:46:29.650Z,14.97
2019-01-21T10:49:44.955Z,15.87
2019-01-21T10:52:41.028Z,15.30
2019-01-21T10:55:33.488Z,15.60
2019-01-21T10:58:43.495Z,15.07
2019-01-21T11:01:59.223Z,15.77
2019-01-21T11:05:17.515Z,14.77
2019-01-21T11:08:16.796Z,15.23
2019-01-21T11:11:03.043Z,14.73
2019-01-21T11:14:20.379Z,15.07
2019-01-21T11:17:28.281Z,13.97
2019-01-21T11:20:27.671Z,15.07
2019-01-21T11:23:06.314Z,15.23
2019-01-21T11:26:14.289Z,15.23
2019-01-21T11:29:20.153Z,19.60
2019-01-21T11:32:14.520Z,17.37
2019-01-21T11:35:12.931Z,14.27
2019-01-21T11:37:59.728Z,16.27
2019-01-21T11:40:59.971Z,15.10
2019-01-21T11:44:07.997Z,16.90
2019-01-21T11:47:37.531Z,14.73
2019-01-21T11:50:50.076Z,18.23
2019-01-21T11:54:03.979Z,20.33
2019-01-21T11:57:19.604Z,16.23
2019-01-21T12:00:30.831Z,15.50
2019-01-21T12:03:23.489Z,17.97
2019-01-21T12:06:02.700Z,18.17
2019-01-21T12:09:17.603Z,17.97
2019-01-21T12:12:27.015Z,17.83
2019-01-21T12:15:38.461Z,16.07
2019-01-21T12:18:35.647Z,15.27
2019-01-21T12:21:46.406Z,16.47
2019-01-21T12:24:37.976Z,17.00
2019-01-21T12:28:00.410Z,16.57
2019-01-21T12:31:09.442Z,16.90
2019-01-21T12:34:27.870Z,20.37
2019-01-21T12:37:38.620Z,16.53
2019-01-21T12:40:37.853Z,17.40
2019-01-21T12:43:45.189Z,22.90
2019-01-21T12:46:37.623Z,17.67
2019-01-21T12:49:32.179Z,16.27
2019-01-21T12:52:28.018Z,15.03
2019-01-21T12:55:25.905Z,16.53
2019-01-21T12:58:15.867Z,16.47
2019-01-21T13:01:55.952Z,16.33
2019-01-21T13:04:52.162Z,16.87
2019-01-21T13:07:51.611Z,17.37
2019-01-21T13:11:12.962Z,15.13
2019-01-21T13:14:12.296Z,15.73
2019-01-21T13:17:15.145Z,15.67
2019-01-21T13:20:22.445Z,16.20
2019-01-21T13:23:25.694Z,16.63
2019-01-21T13:26:28.849Z,15.53
2019-01-21T13:29:26.175Z,15.30
2019-01-21T13:32:34.333Z,15.63
2019-01-21T13:35:40.717Z,15.60
2019-01-21T13:38:59.197Z,15.83
2019-01-21T13:42:10.357Z,17.63
2019-01-21T13:45:41.234Z,17.10
2019-01-21T13:48:47.441Z,16.73
2019-01-21T13:51:49.421Z,15.83
2019-01-21T13:55:02.874Z,16.10
2019-01-21T13:58:17.344Z,15.43
2019-01-21T14:01:07.089Z,15.93
2019-01-21T14:04:32.076Z,16.00
2019-01-21T14:07:37.619Z,16.90
2019-01-21T14:11:04.930Z,16.70
2019-01-21T14:14:19.678Z,16.77
2019-01-21T14:17:28.771Z,16.80
2019-01-21T14:20:43.740Z,18.40
2019-01-21T14:23:25.449Z,16.87
2019-01-21T14:26:32.268Z,21.93
2019-01-21T14:29:41.160Z,18.07
2019-01-21T14:32:52.241Z,16.70
2019-01-21T14:35:43.869Z,20.97
2019-01-21T14:38:49.252Z,18.37
2019-01-21T14:42:11.927Z,21.90
2019-01-21T14:45:22.808Z,18.77
2019-01-21T14:48:45.357Z,18.60
2019-01-21T14:51:51.192Z,18.97
2019-01-21T14:54:46.649Z,15.43
2019-01-21T14:57:45.094Z,16.77
2019-01-21T15:00:33.206Z,19.70
2019-01-21T15:03:46.039Z,18.30
2019-01-21T15:06:43.672Z,19.30
2019-01-21T15:09:40.994Z,18.80
2019-01-21T15:13:05.456Z,18.40
2019-01-21T15:15:49.691Z,16.83
2019-01-21T15:18:37.093Z,19.53
2019-01-21T15:21:14.225Z,24.33
2019-01-21T15:24:16.230Z,22.13
2019-01-21T15:27:20.330Z,24.73
2019-01-21T15:30:45.294Z,21.17
2019-01-21T15:33:28.260Z,17.87
2019-01-21T15:36:27.078Z,20.03
2019-01-21T15:39:31.955Z,20.00
2019-01-21T15:42:43.417Z,20.03
2019-01-21T15:45:52.801Z,20.20
2019-01-21T15:49:05.538Z,22.13
2019-01-21T15:52:00.722Z,26.83
2019-01-21T15:55:07.865Z,24.10
2019-01-21T15:57:44.701Z,24.03
2019-01-21T16:00:56.305Z,19.30
2019-01-21T16:03:54.466Z,20.20
2019-01-21T16:06:40.067Z,24.87
2019-01-21T16:09:38.500Z,23.40
2019-01-21T16:12:46.945Z,24.10
2019-01-21T16:15:46.786Z,27.20
2019-01-21T16:18:33.159Z,22.50
2019-01-21T16:21:49.424Z,21.80
2019-01-21T16:24:50.016Z,23.43
2019-01-21T16:28:08.040Z,22.70
2019-01-21T16:30:53.175Z,23.40
2019-01-21T16:34:05.976Z,21.37
2019-01-21T16:37:27.771Z,21.90
2019-01-21T16:40:24.375Z,22.27
2019-01-21T16:42:55.895Z,22.47
2019-01-21T16:45:27.493Z,22.27
2019-01-21T16:47:59.413Z,21.33
2019-01-21T16:50:30.856Z,21.13
2019-01-21T16:53:04.215Z,21.03
2019-01-21T16:55:35.363Z,29.47
2019-01-21T16:58:07.652Z,24.73
2019-01-21T17:00:39.788Z,22.50
2019-01-21T17:03:12.747Z,24.20
2019-01-21T17:05:45.848Z,23.03
2019-01-21T17:08:18.807Z,20.40
2019-01-21T17:10:50.394Z,20.87
2019-01-21T17:13:22.552Z,20.53
2019-01-21T17:15:54.261Z,18.90
2019-01-21T17:18:25.603Z,19.37
2019-01-21T17:20:57.447Z,19.63
2019-01-21T17:23:28.925Z,20.13
2019-01-21T17:26:00.613Z,21.17
2019-01-21T17:28:32.519Z,20.93
2019-01-21T17:31:04.203Z,22.83
2019-01-21T17:33:35.701Z,21.03
2019-01-21T17:36:07.253Z,21.10
2019-01-21T17:38:39.026Z,22.17
2019-01-21T17:41:11.909Z,21.53
2019-01-21T17:43:43.481Z,23.90
2019-01-21T17:46:15.737Z,18.13
2019-01-21T17:48:47.660Z,18.33
2019-01-21T17:51:19.571Z,19.07
2019-01-21T17:53:51.616Z,18.83
2019-01-21T17:56:23.436Z,19.67
2019-01-21T17:58:55.462Z,20.73
2019-01-21T18:01:27.282Z,23.37
2019-01-21T18:04:00.463Z,24.87
2019-01-21T18:06:36.012Z,30.90
2019-01-21T18:09:10.245Z,26.33
2019-01-21T18:11:41.738Z,23.20
2019-01-21T18:14:14.955Z,26.03
2019-01-21T18:16:46.575Z,24.33
2019-01-21T18:19:18.520Z,28.53
2019-01-21T18:21:49.960Z,33.73
2019-01-21T18:24:21.514Z,36.00
2019-01-21T18:26:53.056Z,46.13
2019-01-21T18:29:25.001Z,37.47
2019-01-21T18:31:56.558Z,28.97
2019-01-21T18:34:28.769Z,32.10
2019-01-21T18:37:01.204Z,34.80
2019-01-21T18:39:33.098Z,37.13
2019-01-21T18:42:04.666Z,32.87
2019-01-21T18:44:37.509Z,32.53
2019-01-21T18:47:08.936Z,42.13
2019-01-21T18:49:40.643Z,33.17
2019-01-21T18:52:13.189Z,42.67
2019-01-21T18:54:46.468Z,50.20
2019-01-21T18:57:18.047Z,49.60
2019-01-21T18:59:49.938Z,42.03
2019-01-21T19:02:21.536Z,34.43
2019-01-21T19:04:53.170Z,29.37
2019-01-21T19:07:24.689Z,27.73
2019-01-21T19:09:56.170Z,25.17
2019-01-21T19:12:27.703Z,22.23
2019-01-21T19:14:59.791Z,20.93
2019-01-21T19:17:31.595Z,19.03
2019-01-21T19:20:03.113Z,19.57
2019-01-21T19:22:35.023Z,20.80
2019-01-21T19:25:07.446Z,18.80
2019-01-21T19:27:39.208Z,20.03
2019-01-21T19:30:14.614Z,18.63
2019-01-21T19:32:46.208Z,19.87
2019-01-21T19:35:19.670Z,18.77
2019-01-21T19:37:51.326Z,19.27
2019-01-21T19:40:23.726Z,19.73
2019-01-21T19:42:55.559Z,23.23
2019-01-21T19:45:27.801Z,26.77
2019-01-21T19:47:59.388Z,27.33
2019-01-21T19:50:32.464Z,25.43
2019-01-21T19:53:04.038Z,22.27
2019-01-21T19:55:46.804Z,21.60
2019-01-21T19:58:18.431Z,23.20
2019-01-21T20:00:51.252Z,23.27
2019-01-21T20:03:23.939Z,21.37
2019-01-21T20:05:57.094Z,21.33
2019-01-21T20:08:28.531Z,21.17
2019-01-21T20:11:03.150Z,21.70
2019-01-21T20:13:34.843Z,20.37
2019-01-21T20:16:07.475Z,20.47
2019-01-21T20:18:41.118Z,19.70
2019-01-21T20:21:13.054Z,20.67
2019-01-21T20:23:46.362Z,21.13
2019-01-21T20:26:19.820Z,19.60
2019-01-21T20:28:51.751Z,20.90
2019-01-21T20:31:23.359Z,20.50
2019-01-21T20:33:54.986Z,21.70
2019-01-21T20:36:26.445Z,21.30
2019-01-21T20:38:57.941Z,19.77
2019-01-21T20:41:29.572Z,20.77
2019-01-21T20:44:01.405Z,19.60
2019-01-21T20:46:33.072Z,20.43
2019-01-21T20:49:05.634Z,21.10
2019-01-21T20:51:37.409Z,19.60
2019-01-21T20:54:09.246Z,19.43
2019-01-21T20:56:41.240Z,20.17
2019-01-21T20:59:13.079Z,19.03
2019-01-21T21:01:44.608Z,19.17
2019-01-21T21:04:16.674Z,18.90
2019-01-21T21:06:48.692Z,18.37
2019-01-21T21:09:20.574Z,18.33
2019-01-21T21:11:55.991Z,20.33
2019-01-21T21:14:27.970Z,20.50
2019-01-21T21:16:59.761Z,23.30
2019-01-21T21:19:32.192Z,26.37
2019-01-21T21:22:04.874Z,22.87
2019-01-21T21:24:37.360Z,27.83
2019-01-21T21:27:10.244Z,22.80
2019-01-21T21:29:42.628Z,21.23
2019-01-21T21:32:14.797Z,20.93
2019-01-21T21:34:46.846Z,23.00
2019-01-21T21:37:18.781Z,18.83
2019-01-21T21:39:50.680Z,18.63
2019-01-21T21:42:23.618Z,19.67
2019-01-21T21:44:55.247Z,20.70
2019-01-21T21:47:27.234Z,23.47
2019-01-21T21:49:59.281Z,22.07
2019-01-21T21:52:31.273Z,21.40
2019-01-21T21:55:05.863Z,24.57
2019-01-21T21:57:38.016Z,22.37
2019-01-21T22:00:13.243Z,21.73
2019-01-21T22:02:45.020Z,27.23
2019-01-21T22:05:18.232Z,22.00
2019-01-21T22:07:50.056Z,20.67
2019-01-21T22:10:24.024Z,19.10
2019-01-21T22:12:55.899Z,21.40
2019-01-21T22:15:28.029Z,20.60
2019-01-21T22:18:00.171Z,24.87
2019-01-21T22:20:32.191Z,20.13
2019-01-21T22:23:04.283Z,22.93
2019-01-21T22:25:36.267Z,23.07
2019-01-21T22:28:07.945Z,25.07
2019-01-21T22:30:39.590Z,24.97
2019-01-21T22:33:11.423Z,30.23
2019-01-21T22:35:43.863Z,27.07
2019-01-21T22:38:15.335Z,22.00
2019-01-21T22:40:46.803Z,19.70
2019-01-21T22:43:18.547Z,19.57
2019-01-21T22:45:50.066Z,17.47
2019-01-21T22:48:21.964Z,17.97
2019-01-21T22:50:54.259Z,19.43
2019-01-21T22:53:26.124Z,18.67
2019-01-21T22:55:58.146Z,17.87
2019-01-21T22:58:30.698Z,17.70
2019-01-21T23:01:26.865Z,18.30
2019-01-21T23:03:58.424Z,17.57
2019-01-21T23:06:29.805Z,16.80
2019-01-21T23:09:01.407Z,17.53
2019-01-21T23:11:37.700Z,17.40
2019-01-21T23:14:09.549Z,18.03
2019-01-21T23:16:42.165Z,17.83
2019-01-21T23:19:15.326Z,17.77
2019-01-21T23:21:46.833Z,18.17
2019-01-21T23:24:18.891Z,16.67
2019-01-21T23:26:50.416Z,17.30
2019-01-21T23:29:22.066Z,17.57
2019-01-21T23:31:53.614Z,16.80
2019-01-21T23:34:25.123Z,18.17
2019-01-21T23:36:57.760Z,16.77
2019-01-21T23:39:30.834Z,17.17
2019-01-21T23:42:02.541Z,17.07
2019-01-21T23:44:35.050Z,17.53
2019-01-21T23:47:06.768Z,18.37
2019-01-21T23:49:38.394Z,17.23
2019-01-21T23:52:09.768Z,16.97
2019-01-21T23:54:41.365Z,18.10
2019-01-21T23:57:13.352Z,17.97
2019-01-21T23:59:45.106Z,18.30
